createdAt,value
2019-01-28T00:01:45.964Z,3.10
2019-01-28T00:04:16.667Z,3.20
2019-01-28T00:06:47.147Z,3.20
2019-01-28T00:09:17.893Z,3.20
2019-01-28T00:11:48.342Z,3.20
2019-01-28T00:14:19.376Z,3.10
2019-01-28T00:16:50.058Z,3.10
2019-01-28T00:19:20.561Z,3.10
2019-01-28T00:21:51.521Z,3.10
2019-01-28T00:24:21.758Z,3.10
2019-01-28T00:26:52.191Z,3.10
2019-01-28T00:29:23.174Z,3.00
2019-01-28T00:31:53.709Z,3.10
2019-01-28T00:34:24.562Z,3.00
2019-01-28T00:36:55.509Z,3.10
2019-01-28T00:39:26.405Z,3.10
2019-01-28T00:41:56.983Z,3.10
2019-01-28T00:44:27.411Z,3.00
2019-01-28T00:46:58.099Z,3.00
2019-01-28T00:49:28.718Z,3.10
2019-01-28T00:51:59.311Z,3.10
2019-01-28T00:54:29.306Z,3.10
2019-01-28T00:57:00.004Z,3.10
2019-01-28T00:59:30.463Z,3.00
2019-01-28T01:02:01.228Z,3.00
2019-01-28T01:04:31.457Z,3.00
2019-01-28T01:07:02.179Z,3.00
2019-01-28T01:09:33.127Z,3.00
2019-01-28T01:12:03.178Z,3.10
2019-01-28T01:14:33.863Z,3.10
2019-01-28T01:17:04.344Z,3.10
2019-01-28T01:19:35.109Z,3.10
2019-01-28T01:22:05.517Z,3.10
2019-01-28T01:24:36.331Z,3.10
2019-01-28T01:27:07.275Z,3.10
2019-01-28T01:29:37.889Z,3.10
2019-01-28T01:32:08.499Z,3.10
2019-01-28T01:34:39.055Z,3.10
2019-01-28T01:37:09.129Z,3.10
2019-01-28T01:39:40.107Z,3.20
2019-01-28T01:42:12.121Z,3.20
2019-01-28T01:44:42.613Z,3.20
2019-01-28T01:47:13.557Z,3.30
2019-01-28T01:49:43.879Z,3.30
2019-01-28T01:52:14.460Z,3.40
2019-01-28T01:54:44.989Z,3.40
2019-01-28T01:57:15.706Z,3.50
2019-01-28T01:59:46.431Z,3.40
2019-01-28T02:02:16.815Z,3.50
2019-01-28T02:04:47.513Z,3.50
2019-01-28T02:07:18.349Z,3.40
2019-01-28T02:09:49.614Z,3.50
2019-01-28T02:12:19.994Z,3.40
2019-01-28T02:14:50.131Z,3.40
2019-01-28T02:17:20.611Z,3.40
2019-01-28T02:19:51.403Z,3.40
2019-01-28T02:22:22.425Z,3.30
2019-01-28T02:24:53.045Z,3.30
2019-01-28T02:27:23.535Z,3.30
2019-01-28T02:29:53.959Z,3.30
2019-01-28T02:32:24.880Z,3.30
2019-01-28T02:34:55.547Z,3.30
2019-01-28T02:37:26.597Z,3.30
2019-01-28T02:39:57.360Z,3.30
2019-01-28T02:42:27.805Z,3.30
2019-01-28T02:44:58.575Z,3.40
2019-01-28T02:47:29.061Z,3.40
2019-01-28T02:49:59.440Z,3.40
2019-01-28T02:52:29.674Z,3.40
2019-01-28T02:55:00.296Z,3.40
2019-01-28T02:57:31.032Z,3.40
2019-01-28T03:00:01.116Z,3.30
2019-01-28T03:02:31.850Z,3.30
2019-01-28T03:05:01.929Z,3.30
2019-01-28T03:07:32.672Z,3.30
2019-01-28T03:10:03.667Z,3.30
2019-01-28T03:12:34.358Z,3.30
2019-01-28T03:15:06.383Z,3.30
2019-01-28T03:17:37.395Z,3.30
2019-01-28T03:20:09.180Z,3.30
2019-01-28T03:22:39.229Z,3.30
2019-01-28T03:25:10.536Z,3.30
2019-01-28T03:27:41.120Z,3.30
2019-01-28T03:30:13.953Z,3.30
2019-01-28T03:32:44.416Z,3.30
2019-01-28T03:35:14.806Z,3.30
2019-01-28T03:37:45.397Z,3.30
2019-01-28T03:40:17.901Z,3.30
2019-01-28T03:42:48.415Z,3.30
2019-01-28T03:45:21.050Z,3.40
2019-01-28T03:47:51.818Z,3.40
2019-01-28T03:50:22.567Z,3.40
2019-01-28T03:52:53.352Z,3.40
2019-01-28T03:55:24.220Z,3.40
2019-01-28T03:57:55.271Z,3.40
2019-01-28T04:00:26.243Z,3.40
2019-01-28T04:02:56.669Z,3.40
2019-01-28T04:05:27.385Z,3.40
2019-01-28T04:07:58.396Z,3.40
2019-01-28T04:10:28.980Z,3.40
2019-01-28T04:12:59.566Z,3.40
2019-01-28T04:15:29.971Z,3.40
2019-01-28T04:18:00.717Z,3.40
2019-01-28T04:20:31.224Z,3.40
2019-01-28T04:23:01.658Z,3.40
2019-01-28T04:25:32.342Z,3.40
2019-01-28T04:28:03.378Z,3.40
2019-01-28T04:30:34.155Z,3.40
2019-01-28T04:33:04.295Z,3.30
2019-01-28T04:35:34.677Z,3.40
2019-01-28T04:38:05.155Z,3.40
2019-01-28T04:40:34.934Z,3.40
2019-01-28T04:43:05.467Z,3.30
2019-01-28T04:45:36.296Z,3.30
2019-01-28T04:48:07.927Z,3.30
2019-01-28T04:50:38.562Z,3.30
2019-01-28T04:53:09.520Z,3.30
2019-01-28T04:55:41.129Z,3.20
2019-01-28T04:58:11.742Z,3.20
2019-01-28T05:00:42.222Z,3.20
2019-01-28T05:03:12.498Z,3.20
2019-01-28T05:05:43.247Z,3.20
2019-01-28T05:08:13.679Z,3.20
2019-01-28T05:10:44.001Z,3.20
2019-01-28T05:13:14.323Z,3.20
2019-01-28T05:15:44.734Z,3.20
2019-01-28T05:18:15.143Z,3.20
2019-01-28T05:20:45.363Z,3.20
2019-01-28T05:23:16.138Z,3.20
2019-01-28T05:25:46.456Z,3.30
2019-01-28T05:28:17.080Z,3.30
2019-01-28T05:30:47.771Z,3.30
2019-01-28T05:33:18.377Z,3.30
2019-01-28T05:35:49.049Z,3.30
2019-01-28T05:38:20.071Z,3.30
2019-01-28T05:40:50.693Z,3.30
2019-01-28T05:43:20.904Z,3.30
2019-01-28T05:45:51.728Z,3.30
2019-01-28T05:48:22.202Z,3.30
2019-01-28T05:50:52.535Z,3.30
2019-01-28T05:53:22.597Z,3.30
2019-01-28T05:55:52.666Z,3.30
2019-01-28T05:58:22.949Z,3.40
2019-01-28T06:00:53.332Z,3.40
2019-01-28T06:03:23.575Z,3.40
2019-01-28T06:05:54.211Z,3.40
2019-01-28T06:08:25.009Z,3.40
2019-01-28T06:10:55.349Z,3.40
2019-01-28T06:13:25.523Z,3.40
2019-01-28T06:15:56.215Z,3.40
2019-01-28T06:18:25.983Z,3.40
2019-01-28T06:20:56.821Z,3.40
2019-01-28T06:23:27.497Z,3.40
2019-01-28T06:25:58.130Z,3.40
2019-01-28T06:28:28.735Z,3.40
2019-01-28T06:30:59.055Z,3.40
2019-01-28T06:33:29.740Z,3.40
2019-01-28T06:36:00.335Z,3.40
2019-01-28T06:38:31.226Z,3.40
2019-01-28T06:41:01.897Z,3.50
2019-01-28T06:43:32.517Z,3.50
2019-01-28T06:46:03.171Z,3.50
2019-01-28T06:48:33.346Z,3.50
2019-01-28T06:51:04.263Z,3.50
2019-01-28T06:53:34.787Z,3.50
2019-01-28T06:56:05.451Z,3.50
2019-01-28T06:58:35.430Z,3.50
2019-01-28T07:01:06.459Z,3.40
2019-01-28T07:03:37.072Z,3.40
2019-01-28T07:06:07.725Z,3.40
2019-01-28T07:08:38.263Z,3.40
2019-01-28T07:11:08.956Z,3.40
2019-01-28T07:13:39.573Z,3.40
2019-01-28T07:16:10.082Z,3.40
2019-01-28T07:18:40.873Z,3.40
2019-01-28T07:21:11.643Z,3.40
2019-01-28T07:23:42.175Z,3.40
2019-01-28T07:26:13.233Z,3.30
2019-01-28T07:28:43.701Z,3.30
2019-01-28T07:31:14.471Z,3.30
2019-01-28T07:33:44.856Z,3.30
2019-01-28T07:36:15.846Z,3.30
2019-01-28T07:38:46.511Z,3.30
2019-01-28T07:41:17.217Z,3.20
2019-01-28T07:43:47.199Z,3.20
2019-01-28T07:46:18.151Z,3.20
2019-01-28T07:48:48.746Z,3.20
2019-01-28T07:51:19.632Z,3.10
2019-01-28T07:53:50.297Z,3.10
2019-01-28T07:56:20.228Z,3.10
2019-01-28T07:58:50.724Z,3.10
2019-01-28T08:01:21.620Z,3.10
2019-01-28T08:03:52.496Z,3.10
2019-01-28T08:06:23.266Z,3.10
2019-01-28T08:08:53.867Z,3.00
2019-01-28T08:11:24.138Z,3.00
2019-01-28T08:13:54.566Z,3.00
2019-01-28T08:16:25.330Z,3.00
2019-01-28T08:18:55.786Z,2.90
2019-01-28T08:21:26.217Z,2.90
2019-01-28T08:23:56.554Z,2.80
2019-01-28T08:26:27.058Z,2.80
2019-01-28T08:28:58.124Z,2.80
2019-01-28T08:31:28.780Z,2.80
2019-01-28T08:33:59.376Z,2.80
2019-01-28T08:36:30.022Z,2.70
2019-01-28T08:39:00.502Z,2.70
2019-01-28T08:41:31.176Z,2.70
2019-01-28T08:44:02.142Z,2.60
2019-01-28T08:46:32.837Z,2.60
2019-01-28T08:49:03.512Z,2.60
2019-01-28T08:51:34.409Z,2.50
2019-01-28T08:54:04.576Z,2.50
2019-01-28T08:56:35.322Z,2.50
2019-01-28T08:59:05.491Z,2.40
2019-01-28T09:01:35.894Z,2.40
2019-01-28T09:04:06.586Z,2.40
2019-01-28T09:06:37.306Z,2.40
2019-01-28T09:09:10.633Z,2.40
2019-01-28T09:11:43.050Z,2.40
2019-01-28T09:14:19.434Z,2.40
2019-01-28T09:16:50.114Z,2.50
2019-01-28T09:19:20.470Z,2.50
2019-01-28T09:21:50.616Z,2.50
2019-01-28T09:24:20.686Z,2.60
2019-01-28T09:26:51.486Z,2.60
2019-01-28T09:29:21.900Z,2.60
2019-01-28T09:31:52.658Z,2.60
2019-01-28T09:34:23.392Z,2.60
2019-01-28T09:36:54.842Z,2.60
2019-01-28T09:39:24.944Z,2.60
2019-01-28T09:41:55.966Z,2.60
2019-01-28T09:44:26.538Z,2.60
2019-01-28T09:46:57.585Z,2.60
2019-01-28T09:49:27.417Z,2.70
2019-01-28T09:51:58.169Z,2.60
2019-01-28T09:54:28.589Z,2.70
2019-01-28T09:56:59.362Z,2.70
2019-01-28T09:59:30.025Z,2.70
2019-01-28T10:02:00.643Z,2.70
2019-01-28T10:04:31.332Z,2.70
2019-01-28T10:07:02.329Z,2.70
2019-01-28T10:09:33.061Z,2.70
2019-01-28T10:12:03.249Z,2.70
2019-01-28T10:14:33.385Z,2.70
2019-01-28T10:17:04.182Z,2.70
2019-01-28T10:19:34.629Z,2.80
2019-01-28T10:22:05.225Z,2.80
2019-01-28T10:24:35.823Z,2.80
2019-01-28T10:27:06.763Z,2.80
2019-01-28T10:29:37.346Z,2.90
2019-01-28T10:32:07.879Z,2.90
2019-01-28T10:34:38.319Z,3.00
2019-01-28T10:37:09.393Z,3.00
2019-01-28T10:39:39.941Z,3.00
2019-01-28T10:42:10.733Z,3.00
2019-01-28T10:44:41.449Z,3.10
2019-01-28T10:47:11.932Z,3.20
2019-01-28T10:49:42.607Z,3.20
2019-01-28T10:52:13.025Z,3.30
2019-01-28T10:54:43.386Z,3.30
2019-01-28T10:57:13.985Z,3.40
2019-01-28T10:59:44.471Z,3.50
2019-01-28T11:02:14.909Z,3.60
2019-01-28T11:04:45.235Z,3.70
2019-01-28T11:07:15.729Z,3.80
2019-01-28T11:09:46.961Z,3.80
2019-01-28T11:12:17.792Z,3.90
2019-01-28T11:14:48.101Z,3.90
2019-01-28T11:17:18.634Z,4.00
2019-01-28T11:19:49.094Z,4.10
2019-01-28T11:22:19.830Z,4.10
2019-01-28T11:24:50.472Z,4.20
2019-01-28T11:27:21.641Z,4.20
2019-01-28T11:29:52.324Z,4.30
2019-01-28T11:32:23.059Z,4.30
2019-01-28T11:34:53.810Z,4.40
2019-01-28T11:37:24.279Z,4.40
2019-01-28T11:39:56.337Z,4.40
2019-01-28T11:42:26.975Z,4.40
2019-01-28T11:44:57.361Z,4.50
2019-01-28T11:47:28.101Z,4.70
2019-01-28T11:49:59.141Z,4.80
2019-01-28T11:52:29.556Z,5.00
2019-01-28T11:54:59.800Z,5.20
2019-01-28T11:57:30.496Z,5.30
2019-01-28T12:00:01.075Z,5.40
2019-01-28T12:02:34.396Z,5.40
2019-01-28T12:05:16.634Z,5.30
2019-01-28T12:11:05.254Z,5.10
2019-01-28T12:13:36.213Z,5.00
2019-01-28T12:16:06.997Z,4.90
2019-01-28T12:18:37.674Z,4.80
2019-01-28T12:21:09.379Z,4.70
2019-01-28T12:23:40.100Z,4.70
2019-01-28T12:26:11.048Z,4.70
2019-01-28T12:28:41.756Z,4.70
2019-01-28T12:31:12.265Z,4.70
2019-01-28T12:33:42.335Z,4.70
2019-01-28T12:36:12.419Z,4.60
2019-01-28T12:38:42.990Z,4.70
2019-01-28T12:41:17.432Z,4.70
2019-01-28T12:43:46.207Z,4.60
2019-01-28T12:46:16.552Z,4.70
2019-01-28T12:48:47.228Z,4.70
2019-01-28T12:51:17.715Z,4.70
2019-01-28T12:53:48.460Z,4.70
2019-01-28T12:56:19.106Z,4.70
2019-01-28T12:58:50.047Z,4.70
2019-01-28T13:01:21.246Z,4.80
2019-01-28T13:03:51.955Z,4.80
2019-01-28T13:06:22.467Z,4.90
2019-01-28T13:08:53.132Z,4.90
2019-01-28T13:11:24.292Z,4.90
2019-01-28T13:13:55.152Z,4.90
2019-01-28T13:16:25.234Z,4.90
2019-01-28T13:18:56.164Z,4.90
2019-01-28T13:21:26.914Z,4.90
2019-01-28T13:23:56.980Z,4.90
2019-01-28T13:26:27.886Z,4.90
2019-01-28T13:28:58.510Z,4.90
2019-01-28T13:31:32.828Z,4.80
2019-01-28T13:34:02.440Z,4.80
2019-01-28T13:36:33.092Z,4.80
2019-01-28T13:39:06.088Z,4.80
2019-01-28T13:41:37.142Z,4.80
2019-01-28T13:44:07.620Z,4.80
2019-01-28T13:46:38.321Z,4.80
2019-01-28T13:49:08.525Z,4.80
2019-01-28T13:51:39.401Z,4.80
2019-01-28T13:54:10.309Z,4.80
2019-01-28T13:56:40.478Z,4.80
2019-01-28T13:59:16.120Z,4.80
2019-01-28T14:01:42.364Z,4.80
2019-01-28T14:04:12.808Z,4.80
2019-01-28T14:06:43.646Z,4.90
2019-01-28T14:09:14.349Z,4.90
2019-01-28T14:11:44.499Z,4.90
2019-01-28T14:14:14.957Z,4.90
2019-01-28T14:16:45.283Z,5.00
2019-01-28T14:19:15.995Z,5.00
2019-01-28T14:21:47.031Z,5.00
2019-01-28T14:24:17.525Z,5.00
2019-01-28T14:26:48.469Z,5.10
2019-01-28T14:29:19.050Z,5.10
2019-01-28T14:31:49.077Z,5.10
2019-01-28T14:34:19.707Z,5.10
2019-01-28T14:36:50.445Z,5.10
2019-01-28T14:39:20.688Z,5.10
2019-01-28T14:41:51.743Z,5.10
2019-01-28T14:44:22.487Z,5.10
2019-01-28T14:46:53.135Z,5.10
2019-01-28T14:49:23.335Z,5.10
2019-01-28T14:51:53.445Z,5.00
2019-01-28T14:54:24.324Z,5.00
2019-01-28T14:56:55.329Z,5.00
2019-01-28T14:59:26.093Z,5.00
2019-01-28T15:01:56.483Z,5.00
2019-01-28T15:04:27.199Z,5.00
2019-01-28T15:06:58.131Z,5.00
2019-01-28T15:09:28.607Z,5.00
2019-01-28T15:11:59.247Z,5.00
2019-01-28T15:14:29.679Z,5.00
2019-01-28T15:17:00.387Z,5.00
2019-01-28T15:19:31.538Z,5.00
2019-01-28T15:22:02.285Z,5.00
2019-01-28T15:24:32.883Z,5.00
2019-01-28T15:27:02.917Z,5.00
2019-01-28T15:29:33.565Z,5.00
2019-01-28T15:32:05.138Z,5.00
2019-01-28T15:34:37.630Z,4.90
2019-01-28T15:37:07.778Z,4.80
2019-01-28T15:39:38.393Z,4.80
2019-01-28T15:42:09.201Z,4.80
2019-01-28T15:44:39.608Z,4.70
2019-01-28T15:47:10.097Z,4.70
2019-01-28T15:49:40.492Z,4.70
2019-01-28T15:52:10.357Z,4.70
2019-01-28T15:54:40.995Z,4.70
2019-01-28T15:57:11.628Z,4.70
2019-01-28T15:59:42.711Z,4.60
2019-01-28T16:02:12.903Z,4.60
2019-01-28T16:04:43.625Z,4.50
2019-01-28T16:07:13.706Z,4.40
2019-01-28T16:09:43.946Z,4.40
2019-01-28T16:12:14.262Z,4.30
2019-01-28T16:14:45.166Z,4.20
2019-01-28T16:17:16.030Z,4.10
2019-01-28T16:19:47.077Z,4.00
2019-01-28T16:22:17.758Z,4.00
2019-01-28T16:24:48.332Z,4.00
2019-01-28T16:27:19.017Z,4.00
2019-01-28T16:29:50.002Z,4.00
2019-01-28T16:32:20.872Z,4.00
2019-01-28T16:34:51.443Z,4.00
2019-01-28T16:37:22.404Z,4.00
2019-01-28T16:39:53.218Z,4.00
2019-01-28T16:42:23.628Z,4.00
2019-01-28T16:44:54.266Z,4.00
2019-01-28T16:47:24.529Z,4.00
2019-01-28T16:49:55.278Z,4.00
2019-01-28T16:52:25.742Z,4.00
2019-01-28T16:54:56.579Z,4.00
2019-01-28T16:57:27.557Z,4.00
2019-01-28T16:59:58.312Z,4.00
2019-01-28T17:02:28.786Z,4.00
2019-01-28T17:04:59.022Z,4.00
2019-01-28T17:07:29.624Z,4.00
2019-01-28T17:09:59.864Z,3.90
2019-01-28T17:12:30.808Z,3.90
2019-01-28T17:15:01.443Z,3.90
2019-01-28T17:17:32.381Z,3.90
2019-01-28T17:20:02.883Z,3.80
2019-01-28T17:22:34.288Z,3.80
2019-01-28T17:25:06.756Z,3.80
2019-01-28T17:27:37.546Z,3.80
2019-01-28T17:30:12.580Z,3.80
2019-01-28T17:32:43.151Z,3.80
2019-01-28T17:35:13.588Z,3.80
2019-01-28T17:37:43.930Z,3.90
2019-01-28T17:40:15.452Z,3.90
2019-01-28T17:42:46.160Z,3.90
2019-01-28T17:45:18.312Z,3.90
2019-01-28T17:47:49.094Z,3.90
2019-01-28T17:50:24.738Z,3.90
2019-01-28T17:52:53.893Z,3.90
2019-01-28T17:55:24.580Z,3.90
2019-01-28T17:57:55.272Z,3.80
2019-01-28T18:00:30.053Z,3.90
2019-01-28T18:03:00.502Z,3.90
2019-01-28T18:05:31.084Z,3.90
2019-01-28T18:08:01.545Z,3.90
2019-01-28T18:10:32.119Z,3.90
2019-01-28T18:13:02.677Z,3.90
2019-01-28T18:15:33.097Z,4.00
2019-01-28T18:18:03.423Z,4.00
2019-01-28T18:20:34.565Z,4.00
2019-01-28T18:23:05.433Z,4.00
2019-01-28T18:25:36.459Z,4.00
2019-01-28T18:28:07.439Z,4.00
2019-01-28T18:30:41.108Z,4.00
2019-01-28T18:33:11.531Z,4.00
2019-01-28T18:35:42.317Z,4.00
2019-01-28T18:38:13.277Z,4.00
2019-01-28T18:40:43.737Z,4.00
2019-01-28T18:43:14.294Z,4.00
2019-01-28T18:45:44.684Z,4.00
2019-01-28T18:48:16.277Z,4.00
2019-01-28T18:50:46.623Z,3.90
2019-01-28T18:53:16.761Z,3.90
2019-01-28T18:55:47.282Z,3.90
2019-01-28T18:58:18.246Z,3.90
2019-01-28T19:00:49.353Z,4.00
2019-01-28T19:03:20.446Z,4.00
2019-01-28T19:06:09.543Z,4.00
2019-01-28T19:09:08.407Z,4.00
2019-01-28T19:11:58.501Z,4.00
2019-01-28T19:14:54.073Z,4.00
2019-01-28T19:17:45.271Z,3.90
2019-01-28T19:20:37.607Z,3.90
2019-01-28T19:23:08.449Z,3.90
2019-01-28T19:25:38.589Z,3.90
2019-01-28T19:28:09.275Z,3.90
2019-01-28T19:30:40.019Z,3.80
2019-01-28T19:33:11.127Z,3.80
2019-01-28T19:35:41.391Z,3.80
2019-01-28T19:38:11.673Z,3.70
2019-01-28T19:40:42.353Z,3.70
2019-01-28T19:43:13.027Z,3.80
2019-01-28T19:45:43.365Z,3.70
2019-01-28T19:48:13.783Z,3.80
2019-01-28T19:50:44.445Z,3.80
2019-01-28T19:53:14.591Z,3.80
2019-01-28T19:55:45.210Z,3.80
2019-01-28T19:58:16.168Z,3.80
2019-01-28T20:00:46.570Z,3.80
2019-01-28T20:03:17.429Z,3.80
2019-01-28T20:05:48.137Z,3.80
2019-01-28T20:08:18.570Z,3.80
2019-01-28T20:10:49.315Z,3.80
2019-01-28T20:13:19.993Z,3.80
2019-01-28T20:15:50.471Z,3.80
2019-01-28T20:18:20.824Z,3.80
2019-01-28T20:20:51.759Z,3.90
2019-01-28T20:23:22.396Z,3.80
2019-01-28T20:25:52.590Z,3.80
2019-01-28T20:28:22.457Z,3.80
2019-01-28T20:30:53.190Z,3.80
2019-01-28T20:33:24.159Z,3.70
2019-01-28T20:35:54.858Z,3.70
2019-01-28T20:38:25.168Z,3.70
2019-01-28T20:40:56.522Z,3.60
2019-01-28T20:43:27.163Z,3.60
2019-01-28T20:45:58.115Z,3.60
2019-01-28T20:48:29.506Z,3.60
2019-01-28T20:51:01.151Z,3.50
2019-01-28T20:53:31.809Z,3.50
2019-01-28T20:56:02.076Z,3.50
2019-01-28T20:58:32.968Z,3.50
2019-01-28T21:01:04.024Z,3.50
2019-01-28T21:03:34.417Z,3.50
2019-01-28T21:06:05.423Z,3.40
2019-01-28T21:08:35.843Z,3.40
2019-01-28T21:11:06.534Z,3.40
2019-01-28T21:13:37.410Z,3.40
2019-01-28T21:16:08.050Z,3.40
2019-01-28T21:18:38.810Z,3.40
2019-01-28T21:21:10.118Z,3.30
2019-01-28T21:23:40.470Z,3.30
2019-01-28T21:26:10.904Z,3.30
2019-01-28T21:28:41.384Z,3.30
2019-01-28T21:31:13.102Z,3.40
2019-01-28T21:33:43.816Z,3.40
2019-01-28T21:36:40.918Z,3.40
2019-01-28T21:39:14.144Z,3.40
2019-01-28T21:41:44.830Z,3.40
2019-01-28T21:44:15.602Z,3.50
2019-01-28T21:46:46.081Z,3.50
2019-01-28T21:49:16.137Z,3.60
2019-01-28T21:51:50.617Z,3.60
2019-01-28T21:54:20.118Z,3.60
2019-01-28T21:56:50.710Z,3.60
2019-01-28T21:59:21.432Z,3.60
2019-01-28T22:01:52.093Z,3.70
2019-01-28T22:04:22.783Z,3.60
2019-01-28T22:06:53.416Z,3.60
2019-01-28T22:09:24.587Z,3.60
2019-01-28T22:11:55.258Z,3.70
2019-01-28T22:14:26.218Z,3.70
2019-01-28T22:16:56.625Z,3.70
2019-01-28T22:19:27.673Z,3.80
2019-01-28T22:21:59.275Z,3.80
2019-01-28T22:24:29.989Z,3.70
2019-01-28T22:27:01.023Z,3.70
2019-01-28T22:29:31.696Z,3.70
2019-01-28T22:32:02.374Z,3.70
2019-01-28T22:34:34.322Z,3.60
2019-01-28T22:37:05.260Z,3.60
2019-01-28T22:39:36.133Z,3.50
2019-01-28T22:42:06.522Z,3.50
2019-01-28T22:44:37.317Z,3.50
2019-01-28T22:47:07.926Z,3.50
2019-01-28T22:49:38.747Z,3.50
2019-01-28T22:52:09.149Z,3.50
2019-01-28T22:54:39.855Z,3.50
2019-01-28T22:57:10.835Z,3.50
2019-01-28T22:59:41.608Z,3.50
2019-01-28T23:02:11.869Z,3.40
2019-01-28T23:04:42.529Z,3.40
2019-01-28T23:07:13.147Z,3.40
2019-01-28T23:09:43.395Z,3.40
2019-01-28T23:12:13.725Z,3.30
2019-01-28T23:14:43.442Z,3.30
2019-01-28T23:17:14.123Z,3.40
2019-01-28T23:19:44.077Z,3.30
2019-01-28T23:22:16.366Z,3.40
2019-01-28T23:24:47.340Z,3.40
2019-01-28T23:27:18.383Z,3.40
2019-01-28T23:29:49.370Z,3.40
2019-01-28T23:32:19.934Z,3.50
2019-01-28T23:34:50.579Z,3.50
2019-01-28T23:37:21.514Z,3.50
2019-01-28T23:39:51.847Z,3.50
2019-01-28T23:42:22.513Z,3.60
2019-01-28T23:44:53.377Z,3.50
2019-01-28T23:47:23.797Z,3.40
2019-01-28T23:49:54.201Z,3.40
2019-01-28T23:52:25.200Z,3.40
2019-01-28T23:54:55.819Z,3.30
2019-01-28T23:57:26.485Z,3.30
2019-01-28T23:59:56.906Z,3.30
